sensor_id;sensor_type;location;lat;lon;timestamp;temperature;humidity
26703;DHT22;14316;51.074;3.704;2022-10-30T00:01:59;16.50;99.90
26703;DHT22;14316;51.074;3.704;2022-10-30T00:04:26;16.50;99.90
26703;DHT22;14316;51.074;3.704;2022-10-30T00:06:51;16.50;99.90
26703;DHT22;14316;51.074;3.704;2022-10-30T00:09:17;16.40;99.90
26703;DHT22;14316;51.074;3.704;2022-10-30T00:11:43;16.40;99.90
26703;DHT22;14316;51.074;3.704;2022-10-30T00:14:08;16.40;99.90
26703;DHT22;14316;51.074;3.704;2022-10-30T00:16:35;16.40;99.90
26703;DHT22;14316;51.074;3.704;2022-10-30T00:19:00;16.30;99.90
26703;DHT22;14316;51.074;3.704;2022-10-30T00:21:26;16.30;99.90
26703;DHT22;14316;51.074;3.704;2022-10-30T00:23:52;16.30;99.90
26703;DHT22;14316;51.074;3.704;2022-10-30T00:26:20;16.30;99.90
26703;DHT22;14316;51.074;3.704;2022-10-30T00:28:54;16.30;99.90
26703;DHT22;14316;51.074;3.704;2022-10-30T00:31:20;16.30;99.90
26703;DHT22;14316;51.074;3.704;2022-10-30T00:33:50;16.50;99.90
26703;DHT22;14316;51.074;3.704;2022-10-30T00:36:17;16.50;99.90
26703;DHT22;14316;51.074;3.704;2022-10-30T00:38:42;16.50;99.90
26703;DHT22;14316;51.074;3.704;2022-10-30T00:41:14;16.50;99.90
26703;DHT22;14316;51.074;3.704;2022-10-30T00:43:40;16.80;99.90
26703;DHT22;14316;51.074;3.704;2022-10-30T00:46:27;16.40;99.90
26703;DHT22;14316;51.074;3.704;2022-10-30T00:49:03;16.50;99.90
26703;DHT22;14316;51.074;3.704;2022-10-30T00:51:31;16.40;99.90
26703;DHT22;14316;51.074;3.704;2022-10-30T00:53:59;16.50;99.90
26703;DHT22;14316;51.074;3.704;2022-10-30T00:56:27;16.40;99.90
26703;DHT22;14316;51.074;3.704;2022-10-30T00:59:01;16.60;99.90
26703;DHT22;14316;51.074;3.704;2022-10-30T01:01:31;16.60;99.90
26703;DHT22;14316;51.074;3.704;2022-10-30T01:03:59;16.40;99.90
26703;DHT22;14316;51.074;3.704;2022-10-30T01:06:28;16.40;99.90
26703;DHT22;14316;51.074;3.704;2022-10-30T01:08:54;16.30;99.90
26703;DHT22;14316;51.074;3.704;2022-10-30T01:11:20;16.30;99.90
26703;DHT22;14316;51.074;3.704;2022-10-30T01:13:48;16.40;99.90
26703;DHT22;14316;51.074;3.704;2022-10-30T01:16:22;16.20;99.90
26703;DHT22;14316;51.074;3.704;2022-10-30T01:19:02;16.30;99.90
26703;DHT22;14316;51.074;3.704;2022-10-30T01:29:32;16.60;99.90
26703;DHT22;14316;51.074;3.704;2022-10-30T01:34:46;16.70;99.90
26703;DHT22;14316;51.074;3.704;2022-10-30T01:37:27;16.80;99.90
26703;DHT22;14316;51.074;3.704;2022-10-30T01:39:56;16.80;99.90
26703;DHT22;14316;51.074;3.704;2022-10-30T01:51:22;16.30;99.90
26703;DHT22;14316;51.074;3.704;2022-10-30T01:59:11;16.00;99.90
26703;DHT22;14316;51.074;3.704;2022-10-30T02:01:38;16.10;99.90
26703;DHT22;14316;51.074;3.704;2022-10-30T02:04:06;16.40;99.90
26703;DHT22;14316;51.074;3.704;2022-10-30T02:06:33;16.50;99.90
26703;DHT22;14316;51.074;3.704;2022-10-30T02:08:59;16.50;99.90
26703;DHT22;14316;51.074;3.704;2022-10-30T02:11:26;16.50;99.90
26703;DHT22;14316;51.074;3.704;2022-10-30T02:13:54;16.50;99.90
26703;DHT22;14316;51.074;3.704;2022-10-30T02:16:21;16.40;99.90
26703;DHT22;14316;51.074;3.704;2022-10-30T02:18:47;16.60;99.90
26703;DHT22;14316;51.074;3.704;2022-10-30T02:21:13;16.60;99.90
26703;DHT22;14316;51.074;3.704;2022-10-30T02:23:39;16.60;99.90
26703;DHT22;14316;51.074;3.704;2022-10-30T02:26:05;16.60;99.90
26703;DHT22;14316;51.074;3.704;2022-10-30T02:28:31;16.90;99.90
26703;DHT22;14316;51.074;3.704;2022-10-30T02:30:57;16.60;99.90
26703;DHT22;14316;51.074;3.704;2022-10-30T02:33:23;16.70;99.90
26703;DHT22;14316;51.074;3.704;2022-10-30T02:35:49;16.60;99.90
26703;DHT22;14316;51.074;3.704;2022-10-30T02:38:16;16.60;99.90
26703;DHT22;14316;51.074;3.704;2022-10-30T02:40:41;16.60;99.90
26703;DHT22;14316;51.074;3.704;2022-10-30T02:43:07;16.60;99.90
26703;DHT22;14316;51.074;3.704;2022-10-30T02:45:33;16.80;99.90
26703;DHT22;14316;51.074;3.704;2022-10-30T02:47:59;16.60;99.90
26703;DHT22;14316;51.074;3.704;2022-10-30T02:50:26;16.70;99.90
26703;DHT22;14316;51.074;3.704;2022-10-30T02:52:52;16.70;99.90
26703;DHT22;14316;51.074;3.704;2022-10-30T02:55:18;16.70;99.90
26703;DHT22;14316;51.074;3.704;2022-10-30T02:57:43;16.70;99.90
26703;DHT22;14316;51.074;3.704;2022-10-30T03:00:10;16.70;99.90
26703;DHT22;14316;51.074;3.704;2022-10-30T03:02:36;16.70;99.90
26703;DHT22;14316;51.074;3.704;2022-10-30T03:05:02;16.70;99.90
26703;DHT22;14316;51.074;3.704;2022-10-30T03:07:28;16.70;99.90
26703;DHT22;14316;51.074;3.704;2022-10-30T03:09:53;16.60;99.90
26703;DHT22;14316;51.074;3.704;2022-10-30T03:12:20;16.60;99.90
26703;DHT22;14316;51.074;3.704;2022-10-30T03:14:45;16.60;99.90
26703;DHT22;14316;51.074;3.704;2022-10-30T03:17:11;16.60;99.90
26703;DHT22;14316;51.074;3.704;2022-10-30T03:19:37;16.60;99.90
26703;DHT22;14316;51.074;3.704;2022-10-30T03:22:02;16.60;99.90
26703;DHT22;14316;51.074;3.704;2022-10-30T03:24:28;16.60;99.90
26703;DHT22;14316;51.074;3.704;2022-10-30T03:26:54;16.60;99.90
26703;DHT22;14316;51.074;3.704;2022-10-30T03:29:20;16.50;99.90
26703;DHT22;14316;51.074;3.704;2022-10-30T03:31:45;16.50;99.90
26703;DHT22;14316;51.074;3.704;2022-10-30T03:34:11;16.60;99.90
26703;DHT22;14316;51.074;3.704;2022-10-30T03:36:37;16.60;99.90
26703;DHT22;14316;51.074;3.704;2022-10-30T03:39:03;16.50;99.90
26703;DHT22;14316;51.074;3.704;2022-10-30T03:41:29;16.50;99.90
26703;DHT22;14316;51.074;3.704;2022-10-30T03:43:55;16.30;99.90
26703;DHT22;14316;51.074;3.704;2022-10-30T03:46:20;16.30;99.90
26703;DHT22;14316;51.074;3.704;2022-10-30T03:48:49;16.30;99.90
26703;DHT22;14316;51.074;3.704;2022-10-30T03:51:16;16.30;99.90
26703;DHT22;14316;51.074;3.704;2022-10-30T03:53:42;16.30;99.90
26703;DHT22;14316;51.074;3.704;2022-10-30T03:56:08;16.30;99.90
26703;DHT22;14316;51.074;3.704;2022-10-30T03:58:34;16.20;99.90
26703;DHT22;14316;51.074;3.704;2022-10-30T04:01:06;16.30;99.90
26703;DHT22;14316;51.074;3.704;2022-10-30T04:03:33;16.50;99.90
26703;DHT22;14316;51.074;3.704;2022-10-30T04:05:59;16.20;99.90
26703;DHT22;14316;51.074;3.704;2022-10-30T04:08:24;16.20;99.90
26703;DHT22;14316;51.074;3.704;2022-10-30T04:10:50;16.10;99.90
26703;DHT22;14316;51.074;3.704;2022-10-30T04:13:16;16.10;99.90
26703;DHT22;14316;51.074;3.704;2022-10-30T04:15:43;16.20;99.90
26703;DHT22;14316;51.074;3.704;2022-10-30T04:18:10;16.40;99.90
26703;DHT22;14316;51.074;3.704;2022-10-30T04:20:36;16.20;99.90
26703;DHT22;14316;51.074;3.704;2022-10-30T04:23:05;16.20;99.90
26703;DHT22;14316;51.074;3.704;2022-10-30T04:25:32;16.20;99.90
26703;DHT22;14316;51.074;3.704;2022-10-30T04:27:58;16.00;99.90
26703;DHT22;14316;51.074;3.704;2022-10-30T04:30:24;15.80;99.90
26703;DHT22;14316;51.074;3.704;2022-10-30T04:32:55;15.80;99.90
26703;DHT22;14316;51.074;3.704;2022-10-30T04:35:25;15.80;99.90
26703;DHT22;14316;51.074;3.704;2022-10-30T04:37:56;15.80;99.90
26703;DHT22;14316;51.074;3.704;2022-10-30T04:40:24;15.90;99.90
26703;DHT22;14316;51.074;3.704;2022-10-30T04:42:50;15.90;99.90
26703;DHT22;14316;51.074;3.704;2022-10-30T04:45:16;15.90;99.90
26703;DHT22;14316;51.074;3.704;2022-10-30T04:47:42;15.80;99.90
26703;DHT22;14316;51.074;3.704;2022-10-30T04:50:08;15.70;99.90
26703;DHT22;14316;51.074;3.704;2022-10-30T04:52:34;15.70;99.90
26703;DHT22;14316;51.074;3.704;2022-10-30T04:55:01;15.70;99.90
26703;DHT22;14316;51.074;3.704;2022-10-30T04:57:26;15.70;99.90
26703;DHT22;14316;51.074;3.704;2022-10-30T04:59:52;15.80;99.90
26703;DHT22;14316;51.074;3.704;2022-10-30T05:02:17;15.60;99.90
26703;DHT22;14316;51.074;3.704;2022-10-30T05:04:47;15.40;99.90
26703;DHT22;14316;51.074;3.704;2022-10-30T05:07:14;15.30;99.90
26703;DHT22;14316;51.074;3.704;2022-10-30T05:09:40;15.50;99.90
26703;DHT22;14316;51.074;3.704;2022-10-30T05:12:06;15.30;99.90
26703;DHT22;14316;51.074;3.704;2022-10-30T05:14:32;15.10;99.90
26703;DHT22;14316;51.074;3.704;2022-10-30T05:16:58;15.00;99.90
26703;DHT22;14316;51.074;3.704;2022-10-30T05:19:25;15.50;99.90
26703;DHT22;14316;51.074;3.704;2022-10-30T05:21:51;15.20;99.90
26703;DHT22;14316;51.074;3.704;2022-10-30T05:24:16;15.30;99.90
26703;DHT22;14316;51.074;3.704;2022-10-30T05:26:42;15.50;99.90
26703;DHT22;14316;51.074;3.704;2022-10-30T05:29:09;15.60;99.90
26703;DHT22;14316;51.074;3.704;2022-10-30T05:31:35;15.60;99.90
26703;DHT22;14316;51.074;3.704;2022-10-30T05:34:00;15.80;99.90
26703;DHT22;14316;51.074;3.704;2022-10-30T05:36:26;15.90;99.90
26703;DHT22;14316;51.074;3.704;2022-10-30T05:38:52;16.00;99.90
26703;DHT22;14316;51.074;3.704;2022-10-30T05:41:17;16.00;99.90
26703;DHT22;14316;51.074;3.704;2022-10-30T05:43:44;16.10;99.90
26703;DHT22;14316;51.074;3.704;2022-10-30T05:46:09;16.20;99.90
26703;DHT22;14316;51.074;3.704;2022-10-30T05:48:35;16.20;99.90
26703;DHT22;14316;51.074;3.704;2022-10-30T05:51:00;16.10;99.90
26703;DHT22;14316;51.074;3.704;2022-10-30T05:53:27;16.10;99.90
26703;DHT22;14316;51.074;3.704;2022-10-30T05:55:56;16.10;99.90
26703;DHT22;14316;51.074;3.704;2022-10-30T05:58:22;16.20;99.90
26703;DHT22;14316;51.074;3.704;2022-10-30T06:00:48;16.30;99.90
26703;DHT22;14316;51.074;3.704;2022-10-30T06:03:13;16.30;99.90
26703;DHT22;14316;51.074;3.704;2022-10-30T06:05:40;16.10;99.90
26703;DHT22;14316;51.074;3.704;2022-10-30T06:08:08;16.00;99.90
26703;DHT22;14316;51.074;3.704;2022-10-30T06:10:34;16.00;99.90
26703;DHT22;14316;51.074;3.704;2022-10-30T06:13:03;16.10;99.90
26703;DHT22;14316;51.074;3.704;2022-10-30T06:15:30;16.10;99.90
26703;DHT22;14316;51.074;3.704;2022-10-30T06:17:56;16.10;99.90
26703;DHT22;14316;51.074;3.704;2022-10-30T06:20:25;16.10;99.90
26703;DHT22;14316;51.074;3.704;2022-10-30T06:25:20;16.20;99.90
26703;DHT22;14316;51.074;3.704;2022-10-30T06:27:46;16.30;99.90
26703;DHT22;14316;51.074;3.704;2022-10-30T06:30:12;16.40;99.90
26703;DHT22;14316;51.074;3.704;2022-10-30T06:32:38;16.40;99.90
26703;DHT22;14316;51.074;3.704;2022-10-30T06:35:04;16.20;99.90
26703;DHT22;14316;51.074;3.704;2022-10-30T06:37:30;16.10;99.90
26703;DHT22;14316;51.074;3.704;2022-10-30T06:39:58;15.90;99.90
26703;DHT22;14316;51.074;3.704;2022-10-30T06:42:25;15.90;99.90
26703;DHT22;14316;51.074;3.704;2022-10-30T06:44:51;16.00;99.90
26703;DHT22;14316;51.074;3.704;2022-10-30T06:47:18;16.00;99.90
26703;DHT22;14316;51.074;3.704;2022-10-30T06:49:44;16.10;99.90
26703;DHT22;14316;51.074;3.704;2022-10-30T06:52:09;16.20;99.90
26703;DHT22;14316;51.074;3.704;2022-10-30T06:54:35;16.20;99.90
26703;DHT22;14316;51.074;3.704;2022-10-30T06:57:03;16.30;99.90
26703;DHT22;14316;51.074;3.704;2022-10-30T06:59:31;16.30;99.90
26703;DHT22;14316;51.074;3.704;2022-10-30T07:01:57;16.10;99.90
26703;DHT22;14316;51.074;3.704;2022-10-30T07:04:28;15.90;99.90
26703;DHT22;14316;51.074;3.704;2022-10-30T07:06:54;15.90;99.90
26703;DHT22;14316;51.074;3.704;2022-10-30T07:09:20;16.10;99.90
26703;DHT22;14316;51.074;3.704;2022-10-30T07:11:46;16.10;99.90
26703;DHT22;14316;51.074;3.704;2022-10-30T07:14:11;16.20;99.90
26703;DHT22;14316;51.074;3.704;2022-10-30T07:16:37;16.30;99.90
26703;DHT22;14316;51.074;3.704;2022-10-30T07:19:03;16.50;99.90
26703;DHT22;14316;51.074;3.704;2022-10-30T07:21:28;16.30;99.90
26703;DHT22;14316;51.074;3.704;2022-10-30T07:23:54;16.30;99.90
26703;DHT22;14316;51.074;3.704;2022-10-30T07:26:19;16.50;99.90
26703;DHT22;14316;51.074;3.704;2022-10-30T07:28:45;16.70;99.90
26703;DHT22;14316;51.074;3.704;2022-10-30T07:31:11;16.80;99.90
26703;DHT22;14316;51.074;3.704;2022-10-30T07:33:40;16.70;99.90
26703;DHT22;14316;51.074;3.704;2022-10-30T07:36:06;16.20;99.90
26703;DHT22;14316;51.074;3.704;2022-10-30T07:38:32;16.00;99.90
26703;DHT22;14316;51.074;3.704;2022-10-30T07:40:57;16.20;99.90
26703;DHT22;14316;51.074;3.704;2022-10-30T07:43:23;16.50;99.90
26703;DHT22;14316;51.074;3.704;2022-10-30T07:45:50;16.90;99.90
26703;DHT22;14316;51.074;3.704;2022-10-30T07:48:15;16.80;99.90
26703;DHT22;14316;51.074;3.704;2022-10-30T07:50:41;17.00;99.90
26703;DHT22;14316;51.074;3.704;2022-10-30T07:53:09;17.00;99.90
26703;DHT22;14316;51.074;3.704;2022-10-30T07:55:36;17.30;99.90
26703;DHT22;14316;51.074;3.704;2022-10-30T07:58:02;17.50;99.90
26703;DHT22;14316;51.074;3.704;2022-10-30T08:00:28;17.50;99.90
26703;DHT22;14316;51.074;3.704;2022-10-30T08:02:56;17.70;99.90
26703;DHT22;14316;51.074;3.704;2022-10-30T08:05:22;17.70;99.90
26703;DHT22;14316;51.074;3.704;2022-10-30T08:07:49;17.70;99.90
26703;DHT22;14316;51.074;3.704;2022-10-30T08:10:16;17.30;99.90
26703;DHT22;14316;51.074;3.704;2022-10-30T08:12:41;17.00;99.90
26703;DHT22;14316;51.074;3.704;2022-10-30T08:15:09;16.90;99.90
26703;DHT22;14316;51.074;3.704;2022-10-30T08:17:48;16.80;99.90
26703;DHT22;14316;51.074;3.704;2022-10-30T08:20:17;16.60;99.90
26703;DHT22;14316;51.074;3.704;2022-10-30T08:22:48;16.60;99.90
26703;DHT22;14316;51.074;3.704;2022-10-30T08:25:15;16.30;99.90
26703;DHT22;14316;51.074;3.704;2022-10-30T08:28:04;16.30;99.90
26703;DHT22;14316;51.074;3.704;2022-10-30T08:30:33;16.50;99.90
26703;DHT22;14316;51.074;3.704;2022-10-30T08:33:02;16.60;99.90
26703;DHT22;14316;51.074;3.704;2022-10-30T08:35:28;16.70;99.90
26703;DHT22;14316;51.074;3.704;2022-10-30T08:37:54;16.80;99.90
26703;DHT22;14316;51.074;3.704;2022-10-30T08:40:20;16.80;99.90
26703;DHT22;14316;51.074;3.704;2022-10-30T08:42:50;17.20;99.90
26703;DHT22;14316;51.074;3.704;2022-10-30T08:45:17;17.10;99.90
26703;DHT22;14316;51.074;3.704;2022-10-30T08:47:43;17.30;99.90
26703;DHT22;14316;51.074;3.704;2022-10-30T08:50:09;17.40;99.90
26703;DHT22;14316;51.074;3.704;2022-10-30T08:52:34;17.40;99.90
26703;DHT22;14316;51.074;3.704;2022-10-30T08:55:00;17.50;99.90
26703;DHT22;14316;51.074;3.704;2022-10-30T08:57:26;17.90;99.90
26703;DHT22;14316;51.074;3.704;2022-10-30T08:59:53;17.50;99.90
26703;DHT22;14316;51.074;3.704;2022-10-30T09:02:18;17.40;99.90
26703;DHT22;14316;51.074;3.704;2022-10-30T09:04:44;17.60;99.90
26703;DHT22;14316;51.074;3.704;2022-10-30T09:07:10;17.80;99.90
26703;DHT22;14316;51.074;3.704;2022-10-30T09:09:35;17.90;99.90
26703;DHT22;14316;51.074;3.704;2022-10-30T09:12:02;18.00;99.90
26703;DHT22;14316;51.074;3.704;2022-10-30T09:14:27;18.30;99.90
26703;DHT22;14316;51.074;3.704;2022-10-30T09:16:54;18.50;99.90
26703;DHT22;14316;51.074;3.704;2022-10-30T09:19:19;18.60;99.90
26703;DHT22;14316;51.074;3.704;2022-10-30T09:21:45;18.90;99.90
26703;DHT22;14316;51.074;3.704;2022-10-30T09:24:11;19.10;99.90
26703;DHT22;14316;51.074;3.704;2022-10-30T09:26:37;19.30;99.90
26703;DHT22;14316;51.074;3.704;2022-10-30T09:29:03;19.50;99.90
26703;DHT22;14316;51.074;3.704;2022-10-30T09:31:28;19.70;99.90
26703;DHT22;14316;51.074;3.704;2022-10-30T09:33:54;19.90;99.90
26703;DHT22;14316;51.074;3.704;2022-10-30T09:36:19;20.10;99.90
26703;DHT22;14316;51.074;3.704;2022-10-30T09:38:45;20.20;99.90
26703;DHT22;14316;51.074;3.704;2022-10-30T09:58:09;20.10;99.90
26703;DHT22;14316;51.074;3.704;2022-10-30T10:00:39;20.20;99.90
26703;DHT22;14316;51.074;3.704;2022-10-30T10:05:51;20.40;99.90
26703;DHT22;14316;51.074;3.704;2022-10-30T10:08:23;20.50;99.90
26703;DHT22;14316;51.074;3.704;2022-10-30T10:10:54;20.50;99.90
26703;DHT22;14316;51.074;3.704;2022-10-30T10:13:23;20.40;99.90
26703;DHT22;14316;51.074;3.704;2022-10-30T10:15:54;20.40;99.90
26703;DHT22;14316;51.074;3.704;2022-10-30T10:18:32;20.10;99.90
26703;DHT22;14316;51.074;3.704;2022-10-30T10:21:18;20.00;99.90
26703;DHT22;14316;51.074;3.704;2022-10-30T10:23:59;19.80;99.90
26703;DHT22;14316;51.074;3.704;2022-10-30T10:26:43;20.00;99.90
26703;DHT22;14316;51.074;3.704;2022-10-30T10:37:37;20.30;99.90
26703;DHT22;14316;51.074;3.704;2022-10-30T10:51:49;20.10;99.90
26703;DHT22;14316;51.074;3.704;2022-10-30T10:54:18;20.00;99.90
26703;DHT22;14316;51.074;3.704;2022-10-30T10:56:48;20.00;99.90
26703;DHT22;14316;51.074;3.704;2022-10-30T10:59:31;20.00;99.90
26703;DHT22;14316;51.074;3.704;2022-10-30T11:05:12;19.60;99.90
26703;DHT22;14316;51.074;3.704;2022-10-30T11:07:47;19.50;99.90
26703;DHT22;14316;51.074;3.704;2022-10-30T11:10:14;19.40;99.90
26703;DHT22;14316;51.074;3.704;2022-10-30T11:12:40;19.50;99.90
26703;DHT22;14316;51.074;3.704;2022-10-30T11:15:25;19.50;99.90
26703;DHT22;14316;51.074;3.704;2022-10-30T11:23:32;19.50;99.90
26703;DHT22;14316;51.074;3.704;2022-10-30T11:25:58;19.50;99.90
26703;DHT22;14316;51.074;3.704;2022-10-30T11:28:38;19.60;99.90
26703;DHT22;14316;51.074;3.704;2022-10-30T11:31:26;19.50;99.90
26703;DHT22;14316;51.074;3.704;2022-10-30T11:36:46;20.60;99.90
26703;DHT22;14316;51.074;3.704;2022-10-30T11:39:25;21.40;99.90
26703;DHT22;14316;51.074;3.704;2022-10-30T11:44:47;21.30;99.90
26703;DHT22;14316;51.074;3.704;2022-10-30T11:47:19;21.50;99.90
26703;DHT22;14316;51.074;3.704;2022-10-30T11:52:18;21.80;99.90
26703;DHT22;14316;51.074;3.704;2022-10-30T11:54:49;21.60;99.90
26703;DHT22;14316;51.074;3.704;2022-10-30T11:59:49;21.90;99.90
26703;DHT22;14316;51.074;3.704;2022-10-30T12:02:27;21.90;99.90
26703;DHT22;14316;51.074;3.704;2022-10-30T12:04:55;22.20;99.90
26703;DHT22;14316;51.074;3.704;2022-10-30T12:07:28;22.80;99.90
26703;DHT22;14316;51.074;3.704;2022-10-30T12:09:55;22.50;99.90
26703;DHT22;14316;51.074;3.704;2022-10-30T12:12:28;22.60;99.90
26703;DHT22;14316;51.074;3.704;2022-10-30T12:17:39;24.00;99.90
26703;DHT22;14316;51.074;3.704;2022-10-30T12:20:07;24.60;99.90
26703;DHT22;14316;51.074;3.704;2022-10-30T12:22:38;24.30;99.90
26703;DHT22;14316;51.074;3.704;2022-10-30T12:25:25;24.20;99.90
26703;DHT22;14316;51.074;3.704;2022-10-30T12:28:06;24.70;99.90
26703;DHT22;14316;51.074;3.704;2022-10-30T12:30:42;25.90;99.90
26703;DHT22;14316;51.074;3.704;2022-10-30T12:36:23;26.90;99.90
26703;DHT22;14316;51.074;3.704;2022-10-30T12:38:57;26.70;99.90
26703;DHT22;14316;51.074;3.704;2022-10-30T12:41:31;26.50;99.90
26703;DHT22;14316;51.074;3.704;2022-10-30T12:46:43;27.00;99.90
26703;DHT22;14316;51.074;3.704;2022-10-30T12:51:55;26.50;99.90
26703;DHT22;14316;51.074;3.704;2022-10-30T12:54:32;26.60;99.90
26703;DHT22;14316;51.074;3.704;2022-10-30T12:57:27;25.50;99.90
26703;DHT22;14316;51.074;3.704;2022-10-30T13:00:13;24.00;99.90
26703;DHT22;14316;51.074;3.704;2022-10-30T13:05:25;23.50;99.90
26703;DHT22;14316;51.074;3.704;2022-10-30T13:10:40;24.00;99.90
26703;DHT22;14316;51.074;3.704;2022-10-30T13:13:30;24.60;99.90
26703;DHT22;14316;51.074;3.704;2022-10-30T13:15:57;24.80;99.90
26703;DHT22;14316;51.074;3.704;2022-10-30T13:18:26;24.80;99.90
26703;DHT22;14316;51.074;3.704;2022-10-30T13:24:14;23.00;99.90
26703;DHT22;14316;51.074;3.704;2022-10-30T13:26:46;22.30;99.90
26703;DHT22;14316;51.074;3.704;2022-10-30T13:32:24;21.10;99.90
26703;DHT22;14316;51.074;3.704;2022-10-30T13:37:39;20.50;99.90
26703;DHT22;14316;51.074;3.704;2022-10-30T13:40:41;20.50;99.90
26703;DHT22;14316;51.074;3.704;2022-10-30T13:54:21;20.40;99.90
26703;DHT22;14316;51.074;3.704;2022-10-30T13:56:48;20.40;99.90
26703;DHT22;14316;51.074;3.704;2022-10-30T13:59:43;20.10;99.90
26703;DHT22;14316;51.074;3.704;2022-10-30T14:05:25;19.60;99.90
26703;DHT22;14316;51.074;3.704;2022-10-30T14:10:45;19.30;99.90
26703;DHT22;14316;51.074;3.704;2022-10-30T14:15:53;18.70;99.90
26703;DHT22;14316;51.074;3.704;2022-10-30T14:18:25;18.60;99.90
26703;DHT22;14316;51.074;3.704;2022-10-30T14:20:52;18.30;99.90
26703;DHT22;14316;51.074;3.704;2022-10-30T14:26:05;17.90;99.90
26703;DHT22;14316;51.074;3.704;2022-10-30T14:28:31;17.80;99.90
26703;DHT22;14316;51.074;3.704;2022-10-30T14:39:27;17.80;99.90
26703;DHT22;14316;51.074;3.704;2022-10-30T14:42:04;17.90;99.90
26703;DHT22;14316;51.074;3.704;2022-10-30T14:45:20;17.90;99.90
26703;DHT22;14316;51.074;3.704;2022-10-30T14:50:30;18.10;99.90
26703;DHT22;14316;51.074;3.704;2022-10-30T14:55:37;18.20;99.90
26703;DHT22;14316;51.074;3.704;2022-10-30T14:58:20;18.10;99.90
26703;DHT22;14316;51.074;3.704;2022-10-30T15:00:47;18.00;99.90
26703;DHT22;14316;51.074;3.704;2022-10-30T15:06:02;17.90;99.90
26703;DHT22;14316;51.074;3.704;2022-10-30T15:12:04;18.20;99.90
26703;DHT22;14316;51.074;3.704;2022-10-30T15:14:43;18.40;99.90
26703;DHT22;14316;51.074;3.704;2022-10-30T15:19:51;19.00;99.90
26703;DHT22;14316;51.074;3.704;2022-10-30T15:22:20;19.10;99.90
26703;DHT22;14316;51.074;3.704;2022-10-30T15:24:49;19.50;99.90
26703;DHT22;14316;51.074;3.704;2022-10-30T15:27:25;19.70;99.90
26703;DHT22;14316;51.074;3.704;2022-10-30T15:30:00;19.90;99.90
26703;DHT22;14316;51.074;3.704;2022-10-30T15:32:28;20.00;99.90
26703;DHT22;14316;51.074;3.704;2022-10-30T15:34:59;19.90;99.90
26703;DHT22;14316;51.074;3.704;2022-10-30T15:37:29;19.80;99.90
26703;DHT22;14316;51.074;3.704;2022-10-30T15:40:16;19.80;99.90
26703;DHT22;14316;51.074;3.704;2022-10-30T15:42:48;19.70;99.90
26703;DHT22;14316;51.074;3.704;2022-10-30T15:45:18;19.70;99.90
26703;DHT22;14316;51.074;3.704;2022-10-30T15:47:46;19.80;99.90
26703;DHT22;14316;51.074;3.704;2022-10-30T15:50:15;19.80;99.90
26703;DHT22;14316;51.074;3.704;2022-10-30T15:52:41;19.90;99.90
26703;DHT22;14316;51.074;3.704;2022-10-30T15:55:11;19.90;99.90
26703;DHT22;14316;51.074;3.704;2022-10-30T15:57:48;19.90;99.90
26703;DHT22;14316;51.074;3.704;2022-10-30T16:03:05;19.60;99.90
26703;DHT22;14316;51.074;3.704;2022-10-30T16:05:32;19.30;99.90
26703;DHT22;14316;51.074;3.704;2022-10-30T16:08:00;19.00;99.90
26703;DHT22;14316;51.074;3.704;2022-10-30T16:10:47;18.80;99.90
26703;DHT22;14316;51.074;3.704;2022-10-30T16:13:28;18.40;99.90
26703;DHT22;14316;51.074;3.704;2022-10-30T16:15:54;18.40;99.90
26703;DHT22;14316;51.074;3.704;2022-10-30T16:18:26;18.20;99.90
26703;DHT22;14316;51.074;3.704;2022-10-30T16:21:00;18.10;99.90
26703;DHT22;14316;51.074;3.704;2022-10-30T16:23:37;17.80;99.90
26703;DHT22;14316;51.074;3.704;2022-10-30T16:26:03;17.40;99.90
26703;DHT22;14316;51.074;3.704;2022-10-30T16:28:32;17.30;99.90
26703;DHT22;14316;51.074;3.704;2022-10-30T16:31:08;17.10;99.90
26703;DHT22;14316;51.074;3.704;2022-10-30T16:33:40;17.00;99.90
26703;DHT22;14316;51.074;3.704;2022-10-30T16:36:11;16.90;99.90
26703;DHT22;14316;51.074;3.704;2022-10-30T16:38:39;16.90;99.90
26703;DHT22;14316;51.074;3.704;2022-10-30T16:41:08;16.80;99.90
26703;DHT22;14316;51.074;3.704;2022-10-30T16:43:42;16.70;99.90
26703;DHT22;14316;51.074;3.704;2022-10-30T16:48:56;16.70;99.90
26703;DHT22;14316;51.074;3.704;2022-10-30T16:51:29;16.60;99.90
26703;DHT22;14316;51.074;3.704;2022-10-30T16:53:55;16.50;99.90
26703;DHT22;14316;51.074;3.704;2022-10-30T16:56:28;16.40;99.90
26703;DHT22;14316;51.074;3.704;2022-10-30T16:59:13;16.30;99.90
26703;DHT22;14316;51.074;3.704;2022-10-30T17:01:39;16.20;99.90
26703;DHT22;14316;51.074;3.704;2022-10-30T17:04:05;16.20;99.90
26703;DHT22;14316;51.074;3.704;2022-10-30T17:06:42;16.20;99.90
26703;DHT22;14316;51.074;3.704;2022-10-30T17:09:25;16.10;99.90
26703;DHT22;14316;51.074;3.704;2022-10-30T17:14:43;16.10;99.90
26703;DHT22;14316;51.074;3.704;2022-10-30T17:17:29;15.90;99.90
26703;DHT22;14316;51.074;3.704;2022-10-30T17:19:59;15.80;99.90
26703;DHT22;14316;51.074;3.704;2022-10-30T17:22:25;15.90;99.90
26703;DHT22;14316;51.074;3.704;2022-10-30T17:24:52;15.60;99.90
26703;DHT22;14316;51.074;3.704;2022-10-30T17:30:01;15.80;99.90
26703;DHT22;14316;51.074;3.704;2022-10-30T17:32:40;16.00;99.90
26703;DHT22;14316;51.074;3.704;2022-10-30T17:35:15;16.00;99.90
26703;DHT22;14316;51.074;3.704;2022-10-30T17:37:41;16.30;99.90
26703;DHT22;14316;51.074;3.704;2022-10-30T17:40:07;16.50;99.90
26703;DHT22;14316;51.074;3.704;2022-10-30T17:42:33;16.80;99.90
26703;DHT22;14316;51.074;3.704;2022-10-30T17:44:59;16.50;99.90
26703;DHT22;14316;51.074;3.704;2022-10-30T17:47:25;16.10;99.90
26703;DHT22;14316;51.074;3.704;2022-10-30T17:49:51;15.90;99.90
26703;DHT22;14316;51.074;3.704;2022-10-30T17:52:18;15.70;99.90
26703;DHT22;14316;51.074;3.704;2022-10-30T17:54:45;15.60;99.90
26703;DHT22;14316;51.074;3.704;2022-10-30T17:57:12;15.60;99.90
26703;DHT22;14316;51.074;3.704;2022-10-30T17:59:39;15.60;99.90
26703;DHT22;14316;51.074;3.704;2022-10-30T18:02:11;15.60;99.90
26703;DHT22;14316;51.074;3.704;2022-10-30T18:04:37;15.50;99.90
26703;DHT22;14316;51.074;3.704;2022-10-30T18:07:03;15.60;99.90
26703;DHT22;14316;51.074;3.704;2022-10-30T18:09:28;15.60;99.90
26703;DHT22;14316;51.074;3.704;2022-10-30T18:11:54;15.60;99.90
26703;DHT22;14316;51.074;3.704;2022-10-30T18:14:20;15.50;99.90
26703;DHT22;14316;51.074;3.704;2022-10-30T18:16:45;15.60;99.90
26703;DHT22;14316;51.074;3.704;2022-10-30T18:19:11;15.60;99.90
26703;DHT22;14316;51.074;3.704;2022-10-30T18:21:37;15.60;99.90
26703;DHT22;14316;51.074;3.704;2022-10-30T18:24:09;15.60;99.90
26703;DHT22;14316;51.074;3.704;2022-10-30T18:26:35;15.60;99.90
26703;DHT22;14316;51.074;3.704;2022-10-30T18:29:00;15.60;99.90
26703;DHT22;14316;51.074;3.704;2022-10-30T18:31:26;15.60;99.90